sensor_id;sensor_type;location;lat;lon;timestamp;P1;durP1;ratioP1;P2;durP2;ratioP2
51862;SDS011;37900;52.996;6.278;2023-02-14T00:01:31;6.93;;;6.07;;
51862;SDS011;37900;52.996;6.278;2023-02-14T00:03:57;9.95;;;7.28;;
51862;SDS011;37900;52.996;6.278;2023-02-14T00:06:25;8.57;;;6.35;;
51862;SDS011;37900;52.996;6.278;2023-02-14T00:08:51;11.07;;;6.75;;
51862;SDS011;37900;52.996;6.278;2023-02-14T00:11:18;8.52;;;5.93;;
51862;SDS011;37900;52.996;6.278;2023-02-14T00:13:44;8.50;;;6.43;;
51862;SDS011;37900;52.996;6.278;2023-02-14T00:16:30;7.55;;;6.18;;
51862;SDS011;37900;52.996;6.278;2023-02-14T00:18:56;9.40;;;5.95;;
51862;SDS011;37900;52.996;6.278;2023-02-14T00:21:32;9.48;;;5.97;;
51862;SDS011;37900;52.996;6.278;2023-02-14T00:24:02;7.53;;;6.28;;
51862;SDS011;37900;52.996;6.278;2023-02-14T00:26:33;7.22;;;5.65;;
51862;SDS011;37900;52.996;6.278;2023-02-14T00:28:58;8.95;;;6.30;;
51862;SDS011;37900;52.996;6.278;2023-02-14T00:31:24;6.90;;;6.07;;
51862;SDS011;37900;52.996;6.278;2023-02-14T00:33:50;8.57;;;6.45;;
51862;SDS011;37900;52.996;6.278;2023-02-14T00:36:16;8.75;;;5.82;;
51862;SDS011;37900;52.996;6.278;2023-02-14T00:38:43;7.22;;;6.13;;
51862;SDS011;37900;52.996;6.278;2023-02-14T00:41:09;7.38;;;5.68;;
51862;SDS011;37900;52.996;6.278;2023-02-14T00:43:44;7.70;;;5.88;;
51862;SDS011;37900;52.996;6.278;2023-02-14T00:46:13;7.53;;;5.35;;
51862;SDS011;37900;52.996;6.278;2023-02-14T00:48:40;8.05;;;6.40;;
51862;SDS011;37900;52.996;6.278;2023-02-14T00:51:06;7.00;;;5.53;;
51862;SDS011;37900;52.996;6.278;2023-02-14T00:53:32;6.83;;;5.80;;
51862;SDS011;37900;52.996;6.278;2023-02-14T00:55:58;7.40;;;6.05;;
51862;SDS011;37900;52.996;6.278;2023-02-14T00:58:24;7.05;;;5.55;;
51862;SDS011;37900;52.996;6.278;2023-02-14T01:00:50;7.60;;;5.45;;
51862;SDS011;37900;52.996;6.278;2023-02-14T01:03:16;7.60;;;6.20;;
51862;SDS011;37900;52.996;6.278;2023-02-14T01:05:42;7.85;;;5.40;;
51862;SDS011;37900;52.996;6.278;2023-02-14T01:08:08;7.10;;;6.15;;
51862;SDS011;37900;52.996;6.278;2023-02-14T01:10:37;6.57;;;5.45;;
51862;SDS011;37900;52.996;6.278;2023-02-14T01:13:04;7.20;;;5.38;;
51862;SDS011;37900;52.996;6.278;2023-02-14T01:15:30;6.57;;;5.32;;
51862;SDS011;37900;52.996;6.278;2023-02-14T01:17:56;7.00;;;5.68;;
51862;SDS011;37900;52.996;6.278;2023-02-14T01:20:23;6.72;;;5.68;;
51862;SDS011;37900;52.996;6.278;2023-02-14T01:22:49;6.32;;;5.55;;
51862;SDS011;37900;52.996;6.278;2023-02-14T01:25:15;6.57;;;5.38;;
51862;SDS011;37900;52.996;6.278;2023-02-14T01:27:41;7.07;;;5.65;;
51862;SDS011;37900;52.996;6.278;2023-02-14T01:30:07;6.18;;;5.50;;
51862;SDS011;37900;52.996;6.278;2023-02-14T01:32:33;8.77;;;6.00;;
51862;SDS011;37900;52.996;6.278;2023-02-14T01:34:59;6.88;;;4.88;;
51862;SDS011;37900;52.996;6.278;2023-02-14T01:37:25;6.28;;;5.15;;
51862;SDS011;37900;52.996;6.278;2023-02-14T01:39:50;6.50;;;5.30;;
51862;SDS011;37900;52.996;6.278;2023-02-14T01:42:16;5.82;;;4.90;;
51862;SDS011;37900;52.996;6.278;2023-02-14T01:47:14;6.38;;;5.38;;
51862;SDS011;37900;52.996;6.278;2023-02-14T01:49:44;5.97;;;5.22;;
51862;SDS011;37900;52.996;6.278;2023-02-14T01:52:27;5.93;;;4.93;;
51862;SDS011;37900;52.996;6.278;2023-02-14T01:55:01;6.70;;;5.28;;
51862;SDS011;37900;52.996;6.278;2023-02-14T01:57:58;6.47;;;5.28;;
51862;SDS011;37900;52.996;6.278;2023-02-14T02:03:12;5.85;;;4.53;;
51862;SDS011;37900;52.996;6.278;2023-02-14T02:05:43;5.70;;;4.75;;
51862;SDS011;37900;52.996;6.278;2023-02-14T02:08:16;5.40;;;4.72;;
51862;SDS011;37900;52.996;6.278;2023-02-14T02:10:42;5.25;;;4.47;;
51862;SDS011;37900;52.996;6.278;2023-02-14T02:13:08;5.97;;;4.80;;
51862;SDS011;37900;52.996;6.278;2023-02-14T02:15:42;5.35;;;4.85;;
51862;SDS011;37900;52.996;6.278;2023-02-14T02:18:20;6.57;;;4.97;;
51862;SDS011;37900;52.996;6.278;2023-02-14T02:29:24;4.90;;;4.40;;
51862;SDS011;37900;52.996;6.278;2023-02-14T02:35:24;5.20;;;4.70;;
51862;SDS011;37900;52.996;6.278;2023-02-14T02:43:56;4.80;;;4.30;;
51862;SDS011;37900;52.996;6.278;2023-02-14T02:47:14;7.03;;;4.65;;
51862;SDS011;37900;52.996;6.278;2023-02-14T02:52:37;6.07;;;4.53;;
51862;SDS011;37900;52.996;6.278;2023-02-14T02:55:29;5.68;;;5.10;;
51862;SDS011;37900;52.996;6.278;2023-02-14T02:58:24;5.90;;;4.30;;
51862;SDS011;37900;52.996;6.278;2023-02-14T03:00:55;4.90;;;4.38;;
51862;SDS011;37900;52.996;6.278;2023-02-14T03:03:23;5.63;;;4.65;;
51862;SDS011;37900;52.996;6.278;2023-02-14T03:06:10;5.78;;;4.25;;
51862;SDS011;37900;52.996;6.278;2023-02-14T03:08:36;5.95;;;4.35;;
51862;SDS011;37900;52.996;6.278;2023-02-14T03:11:02;5.55;;;4.50;;
51862;SDS011;37900;52.996;6.278;2023-02-14T03:13:52;5.05;;;4.30;;
51862;SDS011;37900;52.996;6.278;2023-02-14T03:16:22;4.80;;;4.22;;
51862;SDS011;37900;52.996;6.278;2023-02-14T03:24:40;4.00;;;3.60;;
51862;SDS011;37900;52.996;6.278;2023-02-14T03:27:37;4.93;;;3.95;;
51862;SDS011;37900;52.996;6.278;2023-02-14T03:40:37;4.90;;;4.07;;
51862;SDS011;37900;52.996;6.278;2023-02-14T03:45:50;5.82;;;4.25;;
51862;SDS011;37900;52.996;6.278;2023-02-14T03:48:22;4.40;;;3.80;;
51862;SDS011;37900;52.996;6.278;2023-02-14T03:50:50;4.60;;;4.05;;
51862;SDS011;37900;52.996;6.278;2023-02-14T03:53:18;4.07;;;3.65;;
51862;SDS011;37900;52.996;6.278;2023-02-14T03:55:56;4.05;;;3.65;;
51862;SDS011;37900;52.996;6.278;2023-02-14T03:58:42;4.47;;;3.85;;
51862;SDS011;37900;52.996;6.278;2023-02-14T04:04:00;4.85;;;3.63;;
51862;SDS011;37900;52.996;6.278;2023-02-14T04:06:28;4.57;;;4.10;;
51862;SDS011;37900;52.996;6.278;2023-02-14T04:08:54;4.95;;;3.90;;
51862;SDS011;37900;52.996;6.278;2023-02-14T04:11:20;5.15;;;4.55;;
51862;SDS011;37900;52.996;6.278;2023-02-14T04:13:45;4.97;;;4.25;;
51862;SDS011;37900;52.996;6.278;2023-02-14T04:16:11;4.93;;;4.10;;
51862;SDS011;37900;52.996;6.278;2023-02-14T04:18:37;4.43;;;3.80;;
51862;SDS011;37900;52.996;6.278;2023-02-14T04:21:21;5.85;;;3.80;;
51862;SDS011;37900;52.996;6.278;2023-02-14T04:23:46;3.92;;;3.33;;
51862;SDS011;37900;52.996;6.278;2023-02-14T04:26:12;4.32;;;3.60;;
51862;SDS011;37900;52.996;6.278;2023-02-14T04:28:38;5.07;;;3.97;;
51862;SDS011;37900;52.996;6.278;2023-02-14T04:31:04;4.78;;;3.67;;
51862;SDS011;37900;52.996;6.278;2023-02-14T04:33:30;3.90;;;3.23;;
51862;SDS011;37900;52.996;6.278;2023-02-14T04:35:57;4.20;;;3.33;;
51862;SDS011;37900;52.996;6.278;2023-02-14T04:38:23;3.97;;;3.47;;
51862;SDS011;37900;52.996;6.278;2023-02-14T04:40:49;3.95;;;3.55;;
51862;SDS011;37900;52.996;6.278;2023-02-14T04:43:16;3.65;;;3.17;;
51862;SDS011;37900;52.996;6.278;2023-02-14T04:45:42;3.95;;;3.47;;
51862;SDS011;37900;52.996;6.278;2023-02-14T04:48:07;3.80;;;3.40;;
51862;SDS011;37900;52.996;6.278;2023-02-14T04:50:33;4.22;;;3.15;;
51862;SDS011;37900;52.996;6.278;2023-02-14T04:52:59;4.60;;;3.55;;
51862;SDS011;37900;52.996;6.278;2023-02-14T04:55:25;4.65;;;3.40;;
51862;SDS011;37900;52.996;6.278;2023-02-14T04:57:50;4.32;;;3.55;;
51862;SDS011;37900;52.996;6.278;2023-02-14T05:00:16;4.90;;;3.70;;
51862;SDS011;37900;52.996;6.278;2023-02-14T05:02:43;4.47;;;3.65;;
51862;SDS011;37900;52.996;6.278;2023-02-14T05:05:09;4.18;;;3.35;;
51862;SDS011;37900;52.996;6.278;2023-02-14T05:07:34;4.60;;;3.67;;
51862;SDS011;37900;52.996;6.278;2023-02-14T05:10:00;4.22;;;3.38;;
51862;SDS011;37900;52.996;6.278;2023-02-14T05:12:27;5.47;;;3.80;;
51862;SDS011;37900;52.996;6.278;2023-02-14T05:14:53;3.70;;;3.22;;
51862;SDS011;37900;52.996;6.278;2023-02-14T05:17:20;4.05;;;3.40;;
51862;SDS011;37900;52.996;6.278;2023-02-14T05:19:45;4.85;;;3.80;;
51862;SDS011;37900;52.996;6.278;2023-02-14T05:22:11;4.95;;;3.58;;
51862;SDS011;37900;52.996;6.278;2023-02-14T05:24:37;4.97;;;3.25;;
51862;SDS011;37900;52.996;6.278;2023-02-14T05:27:03;3.85;;;3.20;;
51862;SDS011;37900;52.996;6.278;2023-02-14T05:29:28;4.82;;;3.90;;
51862;SDS011;37900;52.996;6.278;2023-02-14T05:31:54;3.55;;;3.20;;
51862;SDS011;37900;52.996;6.278;2023-02-14T05:34:20;3.20;;;2.80;;
51862;SDS011;37900;52.996;6.278;2023-02-14T05:36:45;4.30;;;3.58;;
51862;SDS011;37900;52.996;6.278;2023-02-14T05:39:11;3.67;;;3.20;;
51862;SDS011;37900;52.996;6.278;2023-02-14T05:41:38;3.80;;;2.90;;
51862;SDS011;37900;52.996;6.278;2023-02-14T05:44:05;3.37;;;3.07;;
51862;SDS011;37900;52.996;6.278;2023-02-14T05:46:30;3.88;;;3.15;;
51862;SDS011;37900;52.996;6.278;2023-02-14T05:48:56;3.78;;;3.47;;
51862;SDS011;37900;52.996;6.278;2023-02-14T05:51:22;3.83;;;3.10;;
51862;SDS011;37900;52.996;6.278;2023-02-14T05:53:48;3.75;;;3.00;;
51862;SDS011;37900;52.996;6.278;2023-02-14T05:56:13;3.38;;;3.08;;
51862;SDS011;37900;52.996;6.278;2023-02-14T05:58:39;3.65;;;3.08;;
51862;SDS011;37900;52.996;6.278;2023-02-14T06:01:05;3.78;;;3.28;;
51862;SDS011;37900;52.996;6.278;2023-02-14T06:03:31;4.57;;;3.50;;
51862;SDS011;37900;52.996;6.278;2023-02-14T06:05:56;3.20;;;2.85;;
51862;SDS011;37900;52.996;6.278;2023-02-14T06:08:22;4.32;;;3.13;;
51862;SDS011;37900;52.996;6.278;2023-02-14T06:10:48;4.53;;;3.40;;
51862;SDS011;37900;52.996;6.278;2023-02-14T06:13:13;3.80;;;3.33;;
51862;SDS011;37900;52.996;6.278;2023-02-14T06:15:39;4.00;;;3.17;;
51862;SDS011;37900;52.996;6.278;2023-02-14T06:18:05;2.83;;;2.58;;
51862;SDS011;37900;52.996;6.278;2023-02-14T06:20:31;4.05;;;3.20;;
51862;SDS011;37900;52.996;6.278;2023-02-14T06:22:57;4.75;;;3.33;;
51862;SDS011;37900;52.996;6.278;2023-02-14T06:25:23;4.30;;;3.30;;
51862;SDS011;37900;52.996;6.278;2023-02-14T06:27:49;3.78;;;3.30;;
51862;SDS011;37900;52.996;6.278;2023-02-14T06:30:16;4.30;;;3.53;;
51862;SDS011;37900;52.996;6.278;2023-02-14T06:32:42;4.57;;;2.90;;
51862;SDS011;37900;52.996;6.278;2023-02-14T06:35:08;4.03;;;3.25;;
51862;SDS011;37900;52.996;6.278;2023-02-14T06:37:33;3.75;;;3.05;;
51862;SDS011;37900;52.996;6.278;2023-02-14T06:39:59;4.93;;;3.00;;
51862;SDS011;37900;52.996;6.278;2023-02-14T06:42:25;3.33;;;3.00;;
51862;SDS011;37900;52.996;6.278;2023-02-14T06:44:51;3.58;;;3.17;;
51862;SDS011;37900;52.996;6.278;2023-02-14T06:47:17;4.07;;;3.30;;
51862;SDS011;37900;52.996;6.278;2023-02-14T06:49:43;3.90;;;2.88;;
51862;SDS011;37900;52.996;6.278;2023-02-14T06:52:08;3.53;;;2.83;;
51862;SDS011;37900;52.996;6.278;2023-02-14T06:54:34;3.85;;;3.17;;
51862;SDS011;37900;52.996;6.278;2023-02-14T06:57:00;3.65;;;3.15;;
51862;SDS011;37900;52.996;6.278;2023-02-14T06:59:25;3.55;;;3.22;;
51862;SDS011;37900;52.996;6.278;2023-02-14T07:01:51;3.70;;;2.85;;
51862;SDS011;37900;52.996;6.278;2023-02-14T07:04:17;3.55;;;3.05;;
51862;SDS011;37900;52.996;6.278;2023-02-14T07:06:44;3.83;;;3.00;;
51862;SDS011;37900;52.996;6.278;2023-02-14T07:09:10;3.72;;;3.17;;
51862;SDS011;37900;52.996;6.278;2023-02-14T07:11:36;3.97;;;3.00;;
51862;SDS011;37900;52.996;6.278;2023-02-14T07:14:02;3.90;;;2.83;;
51862;SDS011;37900;52.996;6.278;2023-02-14T07:16:27;4.50;;;3.55;;
51862;SDS011;37900;52.996;6.278;2023-02-14T07:18:53;5.13;;;3.50;;
51862;SDS011;37900;52.996;6.278;2023-02-14T07:21:19;5.53;;;3.55;;
51862;SDS011;37900;52.996;6.278;2023-02-14T07:23:44;3.90;;;3.25;;
51862;SDS011;37900;52.996;6.278;2023-02-14T07:26:12;5.78;;;3.70;;
51862;SDS011;37900;52.996;6.278;2023-02-14T07:28:42;4.72;;;3.13;;
51862;SDS011;37900;52.996;6.278;2023-02-14T07:31:09;4.13;;;3.30;;
51862;SDS011;37900;52.996;6.278;2023-02-14T07:33:35;4.95;;;3.08;;
51862;SDS011;37900;52.996;6.278;2023-02-14T07:36:05;4.68;;;3.60;;
51862;SDS011;37900;52.996;6.278;2023-02-14T07:38:32;4.35;;;3.03;;
51862;SDS011;37900;52.996;6.278;2023-02-14T07:40:58;3.97;;;3.23;;
51862;SDS011;37900;52.996;6.278;2023-02-14T07:43:25;4.97;;;3.38;;
51862;SDS011;37900;52.996;6.278;2023-02-14T07:45:50;3.85;;;3.38;;
51862;SDS011;37900;52.996;6.278;2023-02-14T07:48:16;4.30;;;3.55;;
51862;SDS011;37900;52.996;6.278;2023-02-14T07:50:42;4.28;;;3.35;;
51862;SDS011;37900;52.996;6.278;2023-02-14T07:53:07;4.20;;;3.20;;
51862;SDS011;37900;52.996;6.278;2023-02-14T07:55:33;5.10;;;3.42;;
51862;SDS011;37900;52.996;6.278;2023-02-14T07:57:59;4.38;;;2.95;;
51862;SDS011;37900;52.996;6.278;2023-02-14T08:00:25;3.63;;;2.90;;
51862;SDS011;37900;52.996;6.278;2023-02-14T08:02:51;4.28;;;3.53;;
51862;SDS011;37900;52.996;6.278;2023-02-14T08:05:17;5.43;;;3.42;;
51862;SDS011;37900;52.996;6.278;2023-02-14T08:07:43;4.03;;;3.13;;
51862;SDS011;37900;52.996;6.278;2023-02-14T08:10:10;3.65;;;2.80;;
51862;SDS011;37900;52.996;6.278;2023-02-14T08:12:36;4.38;;;3.55;;
51862;SDS011;37900;52.996;6.278;2023-02-14T08:15:20;3.45;;;2.85;;
51862;SDS011;37900;52.996;6.278;2023-02-14T08:18:05;5.25;;;3.28;;
51862;SDS011;37900;52.996;6.278;2023-02-14T08:20:30;4.30;;;2.97;;
51862;SDS011;37900;52.996;6.278;2023-02-14T08:22:56;4.78;;;3.60;;
51862;SDS011;37900;52.996;6.278;2023-02-14T08:25:22;4.43;;;3.10;;
51862;SDS011;37900;52.996;6.278;2023-02-14T08:27:48;4.32;;;3.55;;
51862;SDS011;37900;52.996;6.278;2023-02-14T08:30:14;4.28;;;3.13;;
51862;SDS011;37900;52.996;6.278;2023-02-14T08:32:40;4.32;;;3.30;;
51862;SDS011;37900;52.996;6.278;2023-02-14T08:35:05;3.40;;;2.72;;
51862;SDS011;37900;52.996;6.278;2023-02-14T08:37:31;4.22;;;3.42;;
51862;SDS011;37900;52.996;6.278;2023-02-14T08:39:57;4.00;;;3.15;;
51862;SDS011;37900;52.996;6.278;2023-02-14T08:42:23;4.00;;;3.60;;
51862;SDS011;37900;52.996;6.278;2023-02-14T08:44:48;4.28;;;3.03;;
51862;SDS011;37900;52.996;6.278;2023-02-14T08:47:14;3.47;;;3.10;;
51862;SDS011;37900;52.996;6.278;2023-02-14T08:49:40;4.25;;;3.00;;
51862;SDS011;37900;52.996;6.278;2023-02-14T08:52:06;5.28;;;3.58;;
51862;SDS011;37900;52.996;6.278;2023-02-14T08:54:31;3.17;;;2.85;;
51862;SDS011;37900;52.996;6.278;2023-02-14T08:56:57;4.57;;;3.13;;
51862;SDS011;37900;52.996;6.278;2023-02-14T08:59:23;6.00;;;3.55;;
51862;SDS011;37900;52.996;6.278;2023-02-14T09:01:48;3.95;;;2.90;;
51862;SDS011;37900;52.996;6.278;2023-02-14T09:04:14;4.20;;;3.20;;
51862;SDS011;37900;52.996;6.278;2023-02-14T09:06:40;3.50;;;2.80;;
51862;SDS011;37900;52.996;6.278;2023-02-14T09:09:05;3.45;;;2.80;;
51862;SDS011;37900;52.996;6.278;2023-02-14T09:11:32;3.92;;;3.28;;
51862;SDS011;37900;52.996;6.278;2023-02-14T09:13:58;3.22;;;2.78;;
51862;SDS011;37900;52.996;6.278;2023-02-14T09:16:24;3.20;;;2.67;;
51862;SDS011;37900;52.996;6.278;2023-02-14T09:18:51;4.07;;;2.72;;
51862;SDS011;37900;52.996;6.278;2023-02-14T09:21:18;3.47;;;3.10;;
51862;SDS011;37900;52.996;6.278;2023-02-14T09:23:46;3.67;;;3.38;;
51862;SDS011;37900;52.996;6.278;2023-02-14T09:26:13;3.58;;;2.90;;
51862;SDS011;37900;52.996;6.278;2023-02-14T09:28:40;3.10;;;2.63;;
51862;SDS011;37900;52.996;6.278;2023-02-14T09:31:10;3.65;;;3.10;;
51862;SDS011;37900;52.996;6.278;2023-02-14T09:33:38;3.85;;;3.30;;
51862;SDS011;37900;52.996;6.278;2023-02-14T09:36:23;4.18;;;2.97;;
51862;SDS011;37900;52.996;6.278;2023-02-14T09:38:49;4.78;;;3.10;;
51862;SDS011;37900;52.996;6.278;2023-02-14T09:43:59;4.00;;;3.10;;
51862;SDS011;37900;52.996;6.278;2023-02-14T09:46:28;3.40;;;3.10;;
51862;SDS011;37900;52.996;6.278;2023-02-14T09:49:03;3.80;;;3.38;;
51862;SDS011;37900;52.996;6.278;2023-02-14T09:51:28;4.00;;;3.25;;
51862;SDS011;37900;52.996;6.278;2023-02-14T09:54:15;3.75;;;3.10;;
51862;SDS011;37900;52.996;6.278;2023-02-14T10:04:48;3.78;;;2.47;;
51862;SDS011;37900;52.996;6.278;2023-02-14T10:10:10;4.13;;;2.95;;
51862;SDS011;37900;52.996;6.278;2023-02-14T10:12:46;3.85;;;2.78;;
51862;SDS011;37900;52.996;6.278;2023-02-14T10:15:22;3.10;;;2.80;;
51862;SDS011;37900;52.996;6.278;2023-02-14T10:17:52;4.13;;;3.38;;
51862;SDS011;37900;52.996;6.278;2023-02-14T10:20:24;2.80;;;2.50;;
51862;SDS011;37900;52.996;6.278;2023-02-14T10:25:30;2.92;;;2.60;;
51862;SDS011;37900;52.996;6.278;2023-02-14T10:28:21;3.85;;;2.50;;
51862;SDS011;37900;52.996;6.278;2023-02-14T10:31:00;3.42;;;2.58;;
51862;SDS011;37900;52.996;6.278;2023-02-14T10:33:30;3.92;;;2.75;;
51862;SDS011;37900;52.996;6.278;2023-02-14T10:38:37;3.33;;;2.85;;
51862;SDS011;37900;52.996;6.278;2023-02-14T10:50:36;3.25;;;2.75;;
51862;SDS011;37900;52.996;6.278;2023-02-14T10:56:07;3.33;;;2.90;;
51862;SDS011;37900;52.996;6.278;2023-02-14T10:58:44;3.30;;;2.67;;
51862;SDS011;37900;52.996;6.278;2023-02-14T11:01:13;3.92;;;3.10;;
51862;SDS011;37900;52.996;6.278;2023-02-14T11:03:54;3.92;;;3.20;;
51862;SDS011;37900;52.996;6.278;2023-02-14T11:06:28;3.20;;;2.83;;
51862;SDS011;37900;52.996;6.278;2023-02-14T11:08:54;3.77;;;2.87;;
51862;SDS011;37900;52.996;6.278;2023-02-14T11:11:24;3.03;;;2.67;;
51862;SDS011;37900;52.996;6.278;2023-02-14T11:13:54;3.47;;;2.95;;
51862;SDS011;37900;52.996;6.278;2023-02-14T11:16:33;3.47;;;2.97;;
51862;SDS011;37900;52.996;6.278;2023-02-14T11:19:21;3.58;;;3.03;;
51862;SDS011;37900;52.996;6.278;2023-02-14T11:21:53;3.35;;;2.88;;
51862;SDS011;37900;52.996;6.278;2023-02-14T11:27:03;3.67;;;2.90;;
51862;SDS011;37900;52.996;6.278;2023-02-14T11:32:12;3.33;;;2.78;;
51862;SDS011;37900;52.996;6.278;2023-02-14T11:34:40;4.05;;;2.85;;
51862;SDS011;37900;52.996;6.278;2023-02-14T11:39:48;3.30;;;2.80;;
51862;SDS011;37900;52.996;6.278;2023-02-14T11:42:30;3.33;;;3.00;;
51862;SDS011;37900;52.996;6.278;2023-02-14T11:44:56;2.80;;;2.40;;
51862;SDS011;37900;52.996;6.278;2023-02-14T11:47:28;3.45;;;2.38;;
51862;SDS011;37900;52.996;6.278;2023-02-14T11:49:56;3.75;;;2.75;;
51862;SDS011;37900;52.996;6.278;2023-02-14T11:52:27;3.38;;;3.05;;
51862;SDS011;37900;52.996;6.278;2023-02-14T11:54:54;3.00;;;2.70;;
51862;SDS011;37900;52.996;6.278;2023-02-14T11:59:56;3.20;;;2.28;;
51862;SDS011;37900;52.996;6.278;2023-02-14T12:05:00;2.85;;;2.47;;
51862;SDS011;37900;52.996;6.278;2023-02-14T12:07:34;3.15;;;2.40;;
51862;SDS011;37900;52.996;6.278;2023-02-14T12:12:47;5.38;;;3.70;;
51862;SDS011;37900;52.996;6.278;2023-02-14T12:15:34;4.70;;;3.70;;
51862;SDS011;37900;52.996;6.278;2023-02-14T12:29:13;6.00;;;3.85;;
51862;SDS011;37900;52.996;6.278;2023-02-14T12:31:47;4.03;;;3.47;;
51862;SDS011;37900;52.996;6.278;2023-02-14T12:34:14;4.70;;;3.50;;
51862;SDS011;37900;52.996;6.278;2023-02-14T12:36:58;3.80;;;3.00;;
51862;SDS011;37900;52.996;6.278;2023-02-14T12:42:17;4.93;;;2.78;;
51862;SDS011;37900;52.996;6.278;2023-02-14T12:47:54;3.65;;;3.05;;
51862;SDS011;37900;52.996;6.278;2023-02-14T12:50:49;4.80;;;3.40;;
51862;SDS011;37900;52.996;6.278;2023-02-14T13:04:43;3.58;;;2.70;;
51862;SDS011;37900;52.996;6.278;2023-02-14T13:07:30;3.08;;;2.53;;
51862;SDS011;37900;52.996;6.278;2023-02-14T13:18:10;3.40;;;2.70;;
51862;SDS011;37900;52.996;6.278;2023-02-14T13:20:57;2.75;;;2.38;;
51862;SDS011;37900;52.996;6.278;2023-02-14T13:23:37;3.53;;;3.08;;
51862;SDS011;37900;52.996;6.278;2023-02-14T13:26:18;3.22;;;2.63;;
51862;SDS011;37900;52.996;6.278;2023-02-14T13:28:55;3.47;;;2.50;;
51862;SDS011;37900;52.996;6.278;2023-02-14T13:31:25;3.25;;;2.85;;
51862;SDS011;37900;52.996;6.278;2023-02-14T13:33:53;2.97;;;2.60;;
51862;SDS011;37900;52.996;6.278;2023-02-14T13:36:22;3.17;;;2.88;;
51862;SDS011;37900;52.996;6.278;2023-02-14T13:38:50;9.32;;;6.68;;
51862;SDS011;37900;52.996;6.278;2023-02-14T13:41:19;6.63;;;3.90;;
51862;SDS011;37900;52.996;6.278;2023-02-14T13:43:56;6.18;;;3.72;;
51862;SDS011;37900;52.996;6.278;2023-02-14T13:48:59;7.38;;;4.32;;
51862;SDS011;37900;52.996;6.278;2023-02-14T13:52:01;10.60;;;4.25;;
51862;SDS011;37900;52.996;6.278;2023-02-14T13:59:47;6.97;;;3.92;;
51862;SDS011;37900;52.996;6.278;2023-02-14T14:02:43;5.25;;;3.78;;
51862;SDS011;37900;52.996;6.278;2023-02-14T14:08:38;5.63;;;4.28;;
51862;SDS011;37900;52.996;6.278;2023-02-14T14:11:01;6.57;;;3.92;;
51862;SDS011;37900;52.996;6.278;2023-02-14T14:18:56;5.82;;;4.55;;
51862;SDS011;37900;52.996;6.278;2023-02-14T14:27:14;5.43;;;3.83;;
51862;SDS011;37900;52.996;6.278;2023-02-14T14:34:53;7.10;;;3.67;;
51862;SDS011;37900;52.996;6.278;2023-02-14T14:37:25;5.55;;;3.20;;
51862;SDS011;37900;52.996;6.278;2023-02-14T14:40:00;5.13;;;3.22;;
51862;SDS011;37900;52.996;6.278;2023-02-14T14:42:29;5.43;;;3.40;;
51862;SDS011;37900;52.996;6.278;2023-02-14T14:45:02;4.40;;;3.28;;
51862;SDS011;37900;52.996;6.278;2023-02-14T14:47:42;4.35;;;3.03;;
51862;SDS011;37900;52.996;6.278;2023-02-14T14:50:13;4.88;;;2.85;;
51862;SDS011;37900;52.996;6.278;2023-02-14T14:52:47;6.47;;;3.50;;
51862;SDS011;37900;52.996;6.278;2023-02-14T14:55:18;5.43;;;3.08;;
51862;SDS011;37900;52.996;6.278;2023-02-14T14:57:53;6.03;;;3.13;;
51862;SDS011;37900;52.996;6.278;2023-02-14T15:02:58;4.93;;;3.13;;
51862;SDS011;37900;52.996;6.278;2023-02-14T15:16:25;4.10;;;2.92;;
51862;SDS011;37900;52.996;6.278;2023-02-14T15:18:55;5.07;;;3.20;;
51862;SDS011;37900;52.996;6.278;2023-02-14T15:21:24;5.43;;;2.78;;
51862;SDS011;37900;52.996;6.278;2023-02-14T15:23:50;5.65;;;3.03;;
51862;SDS011;37900;52.996;6.278;2023-02-14T15:26:26;5.97;;;3.47;;
51862;SDS011;37900;52.996;6.278;2023-02-14T15:28:54;4.50;;;3.20;;
51862;SDS011;37900;52.996;6.278;2023-02-14T15:31:27;5.60;;;3.45;;
51862;SDS011;37900;52.996;6.278;2023-02-14T15:33:56;4.80;;;3.13;;
51862;SDS011;37900;52.996;6.278;2023-02-14T15:36:24;4.70;;;3.05;;
51862;SDS011;37900;52.996;6.278;2023-02-14T15:38:50;5.78;;;3.38;;
51862;SDS011;37900;52.996;6.278;2023-02-14T15:41:18;6.80;;;3.85;;
51862;SDS011;37900;52.996;6.278;2023-02-14T15:43:48;4.95;;;3.30;;
51862;SDS011;37900;52.996;6.278;2023-02-14T15:46:24;8.05;;;3.78;;
51862;SDS011;37900;52.996;6.278;2023-02-14T15:49:09;7.38;;;4.00;;
51862;SDS011;37900;52.996;6.278;2023-02-14T15:51:40;6.82;;;4.15;;
51862;SDS011;37900;52.996;6.278;2023-02-14T15:57:02;4.07;;;3.25;;
51862;SDS011;37900;52.996;6.278;2023-02-14T15:59:31;5.07;;;3.30;;
51862;SDS011;37900;52.996;6.278;2023-02-14T16:01:59;4.82;;;3.05;;
51862;SDS011;37900;52.996;6.278;2023-02-14T16:04:30;6.05;;;3.13;;
51862;SDS011;37900;52.996;6.278;2023-02-14T16:10:12;7.68;;;3.00;;
51862;SDS011;37900;52.996;6.278;2023-02-14T16:12:42;6.30;;;3.03;;
51862;SDS011;37900;52.996;6.278;2023-02-14T16:15:20;4.70;;;3.10;;
51862;SDS011;37900;52.996;6.278;2023-02-14T16:17:47;5.65;;;3.50;;
51862;SDS011;37900;52.996;6.278;2023-02-14T16:25:48;3.53;;;2.80;;
51862;SDS011;37900;52.996;6.278;2023-02-14T16:28:14;3.67;;;2.80;;
51862;SDS011;37900;52.996;6.278;2023-02-14T16:30:41;5.57;;;4.00;;
51862;SDS011;37900;52.996;6.278;2023-02-14T16:33:21;5.03;;;2.92;;
51862;SDS011;37900;52.996;6.278;2023-02-14T16:35:53;3.28;;;2.47;;
51862;SDS011;37900;52.996;6.278;2023-02-14T16:38:21;5.03;;;3.55;;
51862;SDS011;37900;52.996;6.278;2023-02-14T16:40:48;5.72;;;2.97;;
51862;SDS011;37900;52.996;6.278;2023-02-14T16:43:17;3.92;;;2.90;;
51862;SDS011;37900;52.996;6.278;2023-02-14T16:45:44;6.50;;;3.45;;
51862;SDS011;37900;52.996;6.278;2023-02-14T16:48:10;4.82;;;3.35;;
51862;SDS011;37900;52.996;6.278;2023-02-14T16:50:36;4.15;;;3.00;;
51862;SDS011;37900;52.996;6.278;2023-02-14T16:53:10;3.90;;;3.05;;
51862;SDS011;37900;52.996;6.278;2023-02-14T16:55:46;5.78;;;2.88;;
51862;SDS011;37900;52.996;6.278;2023-02-14T16:58:12;3.40;;;2.90;;
51862;SDS011;37900;52.996;6.278;2023-02-14T17:00:38;4.53;;;2.90;;
51862;SDS011;37900;52.996;6.278;2023-02-14T17:03:04;3.47;;;3.13;;
51862;SDS011;37900;52.996;6.278;2023-02-14T17:05:30;4.40;;;3.28;;
51862;SDS011;37900;52.996;6.278;2023-02-14T17:07:57;3.08;;;2.72;;
51862;SDS011;37900;52.996;6.278;2023-02-14T17:10:23;3.90;;;3.15;;
51862;SDS011;37900;52.996;6.278;2023-02-14T17:12:49;3.83;;;3.10;;
51862;SDS011;37900;52.996;6.278;2023-02-14T17:15:17;3.65;;;3.00;;
51862;SDS011;37900;52.996;6.278;2023-02-14T17:17:46;6.07;;;3.40;;
51862;SDS011;37900;52.996;6.278;2023-02-14T17:20:13;4.57;;;3.50;;
51862;SDS011;37900;52.996;6.278;2023-02-14T17:22:40;4.80;;;3.72;;
51862;SDS011;37900;52.996;6.278;2023-02-14T17:25:09;3.47;;;2.97;;
51862;SDS011;37900;52.996;6.278;2023-02-14T17:27:35;3.92;;;3.10;;
51862;SDS011;37900;52.996;6.278;2023-02-14T17:30:01;5.22;;;3.20;;
51862;SDS011;37900;52.996;6.278;2023-02-14T17:32:28;4.72;;;3.17;;
51862;SDS011;37900;52.996;6.278;2023-02-14T17:34:53;5.85;;;2.97;;
51862;SDS011;37900;52.996;6.278;2023-02-14T17:37:20;3.30;;;2.73;;
51862;SDS011;37900;52.996;6.278;2023-02-14T17:39:46;4.53;;;3.13;;
51862;SDS011;37900;52.996;6.278;2023-02-14T17:42:11;4.05;;;3.00;;
51862;SDS011;37900;52.996;6.278;2023-02-14T17:44:37;4.43;;;3.05;;
51862;SDS011;37900;52.996;6.278;2023-02-14T17:47:03;6.40;;;3.80;;
51862;SDS011;37900;52.996;6.278;2023-02-14T17:49:29;8.73;;;5.53;;
51862;SDS011;37900;52.996;6.278;2023-02-14T17:51:55;8.95;;;6.18;;
51862;SDS011;37900;52.996;6.278;2023-02-14T17:54:21;7.65;;;5.10;;
51862;SDS011;37900;52.996;6.278;2023-02-14T17:56:47;10.48;;;5.35;;
51862;SDS011;37900;52.996;6.278;2023-02-14T17:59:13;14.65;;;7.05;;
51862;SDS011;37900;52.996;6.278;2023-02-14T18:01:38;11.00;;;6.95;;
51862;SDS011;37900;52.996;6.278;2023-02-14T18:04:05;12.60;;;7.60;;
51862;SDS011;37900;52.996;6.278;2023-02-14T18:06:31;13.77;;;8.30;;